sensor_id;sensor_type;location;lat;lon;timestamp;pressure;altitude;pressure_sealevel;temperature;humidity
59043;BME280;44826;51.596;5.624;2024-01-25T00:01:29;102691.94;;;7.16;97.11
59043;BME280;44826;51.596;5.624;2024-01-25T00:03:57;102689.34;;;7.16;96.81
59043;BME280;44826;51.596;5.624;2024-01-25T00:06:22;102687.50;;;7.10;96.92
59043;BME280;44826;51.596;5.624;2024-01-25T00:08:48;102707.34;;;7.09;96.97
59043;BME280;44826;51.596;5.624;2024-01-25T00:11:13;102699.50;;;7.05;96.97
59043;BME280;44826;51.596;5.624;2024-01-25T00:13:38;102702.00;;;7.00;97.34
59043;BME280;44826;51.596;5.624;2024-01-25T00:16:05;102697.59;;;6.96;97.22
59043;BME280;44826;51.596;5.624;2024-01-25T00:18:30;102710.47;;;6.93;97.15
59043;BME280;44826;51.596;5.624;2024-01-25T00:21:00;102712.16;;;6.91;97.07
59043;BME280;44826;51.596;5.624;2024-01-25T00:23:25;102703.50;;;6.89;97.19
59043;BME280;44826;51.596;5.624;2024-01-25T00:25:51;102700.84;;;6.86;97.02
59043;BME280;44826;51.596;5.624;2024-01-25T00:28:16;102708.59;;;6.86;97.14
59043;BME280;44826;51.596;5.624;2024-01-25T00:30:42;102703.31;;;6.79;97.23
59043;BME280;44826;51.596;5.624;2024-01-25T00:33:07;102713.66;;;6.79;97.35
59043;BME280;44826;51.596;5.624;2024-01-25T00:35:33;102699.81;;;6.77;97.37
59043;BME280;44826;51.596;5.624;2024-01-25T00:37:59;102699.75;;;6.74;97.26
59043;BME280;44826;51.596;5.624;2024-01-25T00:40:28;102706.66;;;6.74;97.22
59043;BME280;44826;51.596;5.624;2024-01-25T00:42:54;102716.06;;;6.70;97.49
59043;BME280;44826;51.596;5.624;2024-01-25T00:45:20;102709.13;;;6.67;97.59
59043;BME280;44826;51.596;5.624;2024-01-25T00:47:46;102720.28;;;6.66;97.69
59043;BME280;44826;51.596;5.624;2024-01-25T00:50:12;102715.09;;;6.65;97.58
59043;BME280;44826;51.596;5.624;2024-01-25T00:52:38;102710.69;;;6.61;97.48
59043;BME280;44826;51.596;5.624;2024-01-25T00:55:04;102726.22;;;6.61;97.64
59043;BME280;44826;51.596;5.624;2024-01-25T00:57:30;102715.81;;;6.58;97.69
59043;BME280;44826;51.596;5.624;2024-01-25T00:59:58;102721.81;;;6.57;97.69
59043;BME280;44826;51.596;5.624;2024-01-25T01:02:26;102720.00;;;6.52;97.69
59043;BME280;44826;51.596;5.624;2024-01-25T01:04:58;102716.50;;;6.50;97.85
59043;BME280;44826;51.596;5.624;2024-01-25T01:07:24;102723.41;;;6.50;97.79
59043;BME280;44826;51.596;5.624;2024-01-25T01:09:52;102724.22;;;6.49;97.93
59043;BME280;44826;51.596;5.624;2024-01-25T01:12:21;102728.41;;;6.44;97.82
59043;BME280;44826;51.596;5.624;2024-01-25T01:14:46;102735.25;;;6.42;97.98
59043;BME280;44826;51.596;5.624;2024-01-25T01:17:13;102731.75;;;6.38;98.09
59043;BME280;44826;51.596;5.624;2024-01-25T01:19:41;102726.50;;;6.35;98.42
59043;BME280;44826;51.596;5.624;2024-01-25T01:22:06;102728.19;;;6.33;98.20
59043;BME280;44826;51.596;5.624;2024-01-25T01:24:32;102733.34;;;6.33;98.41
59043;BME280;44826;51.596;5.624;2024-01-25T01:27:00;102726.38;;;6.29;98.74
59043;BME280;44826;51.596;5.624;2024-01-25T01:29:28;102731.50;;;6.27;98.40
59043;BME280;44826;51.596;5.624;2024-01-25T01:31:55;102731.47;;;6.26;98.95
59043;BME280;44826;51.596;5.624;2024-01-25T01:34:24;102730.56;;;6.23;98.61
59043;BME280;44826;51.596;5.624;2024-01-25T01:36:51;102726.16;;;6.19;98.90
59043;BME280;44826;51.596;5.624;2024-01-25T01:39:17;102732.97;;;6.16;99.15
59043;BME280;44826;51.596;5.624;2024-01-25T01:41:46;102743.28;;;6.14;99.30
59043;BME280;44826;51.596;5.624;2024-01-25T01:44:12;102757.06;;;6.13;99.33
59043;BME280;44826;51.596;5.624;2024-01-25T01:46:37;102753.47;;;6.08;99.51
59043;BME280;44826;51.596;5.624;2024-01-25T01:49:06;102756.91;;;6.07;99.56
59043;BME280;44826;51.596;5.624;2024-01-25T01:51:35;102764.63;;;6.05;99.29
59043;BME280;44826;51.596;5.624;2024-01-25T01:54:06;102762.88;;;6.04;100.00
59043;BME280;44826;51.596;5.624;2024-01-25T01:56:35;102768.81;;;6.02;99.77
59043;BME280;44826;51.596;5.624;2024-01-25T01:59:10;102768.81;;;6.02;99.89
59043;BME280;44826;51.596;5.624;2024-01-25T02:01:37;102775.72;;;6.03;99.51
59043;BME280;44826;51.596;5.624;2024-01-25T02:04:03;102777.31;;;5.98;99.60
59043;BME280;44826;51.596;5.624;2024-01-25T02:06:29;102779.91;;;5.98;100.00
59043;BME280;44826;51.596;5.624;2024-01-25T02:08:54;102773.81;;;5.96;100.00
59043;BME280;44826;51.596;5.624;2024-01-25T02:11:33;102783.25;;;5.93;100.00
59043;BME280;44826;51.596;5.624;2024-01-25T02:14:04;102791.81;;;5.92;100.00
59043;BME280;44826;51.596;5.624;2024-01-25T02:16:40;102801.25;;;5.90;100.00
59043;BME280;44826;51.596;5.624;2024-01-25T02:19:08;102792.50;;;5.85;100.00
59043;BME280;44826;51.596;5.624;2024-01-25T02:21:44;102795.91;;;5.84;100.00
59043;BME280;44826;51.596;5.624;2024-01-25T02:24:19;102801.91;;;5.83;100.00
59043;BME280;44826;51.596;5.624;2024-01-25T02:26:57;102788.94;;;5.80;100.00
59043;BME280;44826;51.596;5.624;2024-01-25T02:29:30;102795.78;;;5.78;100.00
59043;BME280;44826;51.596;5.624;2024-01-25T02:32:01;102790.59;;;5.78;100.00
59043;BME280;44826;51.596;5.624;2024-01-25T02:34:29;102801.84;;;5.80;100.00
59043;BME280;44826;51.596;5.624;2024-01-25T02:37:05;102798.34;;;5.78;100.00
59043;BME280;44826;51.596;5.624;2024-01-25T02:39:43;102803.53;;;5.80;100.00
59043;BME280;44826;51.596;5.624;2024-01-25T02:42:11;102790.59;;;5.78;100.00
59043;BME280;44826;51.596;5.624;2024-01-25T02:44:37;102801.78;;;5.78;100.00
59043;BME280;44826;51.596;5.624;2024-01-25T02:47:02;102805.28;;;5.79;100.00
59043;BME280;44826;51.596;5.624;2024-01-25T02:49:30;102794.88;;;5.77;100.00
59043;BME280;44826;51.596;5.624;2024-01-25T02:51:55;102795.69;;;5.75;100.00
59043;BME280;44826;51.596;5.624;2024-01-25T02:54:31;102787.03;;;5.73;100.00
59043;BME280;44826;51.596;5.624;2024-01-25T02:57:08;102794.75;;;5.71;100.00
59043;BME280;44826;51.596;5.624;2024-01-25T02:59:43;102795.56;;;5.70;100.00
59043;BME280;44826;51.596;5.624;2024-01-25T03:02:08;102786.84;;;5.67;100.00
59043;BME280;44826;51.596;5.624;2024-01-25T03:04:45;102791.16;;;5.66;100.00
59043;BME280;44826;51.596;5.624;2024-01-25T03:07:10;102790.22;;;5.62;100.00
59043;BME280;44826;51.596;5.624;2024-01-25T03:09:36;102784.97;;;5.61;100.00
59043;BME280;44826;51.596;5.624;2024-01-25T03:12:03;102789.22;;;5.59;100.00
59043;BME280;44826;51.596;5.624;2024-01-25T03:14:29;102784.88;;;5.56;100.00
59043;BME280;44826;51.596;5.624;2024-01-25T03:16:54;102792.53;;;5.53;100.00
59043;BME280;44826;51.596;5.624;2024-01-25T03:19:22;102795.09;;;5.52;100.00
59043;BME280;44826;51.596;5.624;2024-01-25T03:21:48;102795.03;;;5.50;100.00
59043;BME280;44826;51.596;5.624;2024-01-25T03:24:15;102795.00;;;5.49;100.00
59043;BME280;44826;51.596;5.624;2024-01-25T03:26:43;102798.38;;;5.46;100.00
59043;BME280;44826;51.596;5.624;2024-01-25T03:29:11;102806.06;;;5.44;100.00
59043;BME280;44826;51.596;5.624;2024-01-25T03:31:41;102808.59;;;5.43;100.00
59043;BME280;44826;51.596;5.624;2024-01-25T03:34:06;102808.53;;;5.40;100.00
59043;BME280;44826;51.596;5.624;2024-01-25T03:36:32;102817.09;;;5.39;100.00
59043;BME280;44826;51.596;5.624;2024-01-25T03:39:01;102808.44;;;5.37;100.00
59043;BME280;44826;51.596;5.624;2024-01-25T03:41:26;102800.59;;;5.34;100.00
59043;BME280;44826;51.596;5.624;2024-01-25T03:43:54;102809.13;;;5.31;100.00
59043;BME280;44826;51.596;5.624;2024-01-25T03:46:20;102807.38;;;5.30;100.00
59043;BME280;44826;51.596;5.624;2024-01-25T03:48:47;102798.63;;;5.25;100.00
59043;BME280;44826;51.596;5.624;2024-01-25T03:51:13;102807.19;;;5.24;100.00
59043;BME280;44826;51.596;5.624;2024-01-25T03:53:38;102807.19;;;5.22;100.00
59043;BME280;44826;51.596;5.624;2024-01-25T03:56:10;102809.66;;;5.19;100.00
59043;BME280;44826;51.596;5.624;2024-01-25T03:58:39;102821.63;;;5.17;100.00
59043;BME280;44826;51.596;5.624;2024-01-25T04:01:07;102812.94;;;5.13;100.00
59043;BME280;44826;51.596;5.624;2024-01-25T04:03:35;102817.22;;;5.13;100.00
59043;BME280;44826;51.596;5.624;2024-01-25T04:06:01;102816.25;;;5.09;100.00
59043;BME280;44826;51.596;5.624;2024-01-25T04:08:27;102809.31;;;5.07;100.00
59043;BME280;44826;51.596;5.624;2024-01-25T04:10:52;102807.47;;;5.03;100.00
59043;BME280;44826;51.596;5.624;2024-01-25T04:13:20;102821.16;;;5.00;100.00
59043;BME280;44826;51.596;5.624;2024-01-25T04:15:45;102822.69;;;4.93;100.00
59043;BME280;44826;51.596;5.624;2024-01-25T04:18:10;102813.19;;;4.92;100.00
59043;BME280;44826;51.596;5.624;2024-01-25T04:20:39;102814.75;;;4.87;100.00
59043;BME280;44826;51.596;5.624;2024-01-25T04:23:05;102816.41;;;4.85;100.00
59043;BME280;44826;51.596;5.624;2024-01-25T04:25:30;102822.38;;;4.82;100.00
59043;BME280;44826;51.596;5.624;2024-01-25T04:27:58;102811.13;;;4.80;100.00
59043;BME280;44826;51.596;5.624;2024-01-25T04:30:23;102814.50;;;4.78;100.00
59043;BME280;44826;51.596;5.624;2024-01-25T04:32:51;102808.31;;;4.73;100.00
59043;BME280;44826;51.596;5.624;2024-01-25T04:35:24;102801.34;;;4.70;100.00
59043;BME280;44826;51.596;5.624;2024-01-25T04:37:52;102807.34;;;4.69;100.00
59043;BME280;44826;51.596;5.624;2024-01-25T04:40:18;102806.47;;;4.68;100.00
59043;BME280;44826;51.596;5.624;2024-01-25T04:42:44;102815.84;;;4.66;100.00
59043;BME280;44826;51.596;5.624;2024-01-25T04:45:12;102824.47;;;4.67;100.00
59043;BME280;44826;51.596;5.624;2024-01-25T04:47:38;102823.47;;;4.63;100.00
59043;BME280;44826;51.596;5.624;2024-01-25T04:50:06;102813.13;;;4.62;100.00
59043;BME280;44826;51.596;5.624;2024-01-25T04:52:32;102819.97;;;4.61;100.00
59043;BME280;44826;51.596;5.624;2024-01-25T04:54:57;102813.00;;;4.57;100.00
59043;BME280;44826;51.596;5.624;2024-01-25T04:57:25;102808.66;;;4.56;100.00
59043;BME280;44826;51.596;5.624;2024-01-25T04:59:53;102809.50;;;4.55;100.00
59043;BME280;44826;51.596;5.624;2024-01-25T05:02:28;102806.00;;;4.53;100.00
59043;BME280;44826;51.596;5.624;2024-01-25T05:04:54;102806.00;;;4.53;100.00
59043;BME280;44826;51.596;5.624;2024-01-25T05:07:19;102811.16;;;4.53;100.00
59043;BME280;44826;51.596;5.624;2024-01-25T05:09:45;102811.88;;;4.49;100.00
59043;BME280;44826;51.596;5.624;2024-01-25T05:12:10;102814.44;;;4.49;100.00
59043;BME280;44826;51.596;5.624;2024-01-25T05:14:38;102805.78;;;4.47;100.00
59043;BME280;44826;51.596;5.624;2024-01-25T05:17:27;102811.78;;;4.46;100.00
59043;BME280;44826;51.596;5.624;2024-01-25T05:19:58;102809.13;;;4.43;100.00
59043;BME280;44826;51.596;5.624;2024-01-25T05:22:28;102809.97;;;4.43;100.00
59043;BME280;44826;51.596;5.624;2024-01-25T05:24:53;102802.16;;;4.40;100.00
59043;BME280;44826;51.596;5.624;2024-01-25T05:27:19;102789.25;;;4.40;100.00
59043;BME280;44826;51.596;5.624;2024-01-25T05:29:47;102796.06;;;4.38;100.00
59043;BME280;44826;51.596;5.624;2024-01-25T05:32:14;102801.22;;;4.38;100.00
59043;BME280;44826;51.596;5.624;2024-01-25T05:34:40;102810.66;;;4.37;100.00
59043;BME280;44826;51.596;5.624;2024-01-25T05:37:05;102809.78;;;4.37;100.00
59043;BME280;44826;51.596;5.624;2024-01-25T05:39:33;102809.69;;;4.34;100.00
59043;BME280;44826;51.596;5.624;2024-01-25T05:42:06;102812.28;;;4.34;100.00
59043;BME280;44826;51.596;5.624;2024-01-25T05:44:33;102810.53;;;4.33;100.00
59043;BME280;44826;51.596;5.624;2024-01-25T05:47:01;102809.59;;;4.31;100.00
59043;BME280;44826;51.596;5.624;2024-01-25T05:49:29;102820.75;;;4.31;100.00
59043;BME280;44826;51.596;5.624;2024-01-25T05:51:54;102825.00;;;4.29;100.00
59043;BME280;44826;51.596;5.624;2024-01-25T05:54:20;102839.63;;;4.30;100.00
59043;BME280;44826;51.596;5.624;2024-01-25T05:56:45;102835.25;;;4.28;100.00
59043;BME280;44826;51.596;5.624;2024-01-25T05:59:11;102843.91;;;4.30;100.00
59043;BME280;44826;51.596;5.624;2024-01-25T06:01:36;102843.03;;;4.29;100.00
59043;BME280;44826;51.596;5.624;2024-01-25T06:04:02;102845.53;;;4.26;100.00
59043;BME280;44826;51.596;5.624;2024-01-25T06:06:27;102845.56;;;4.28;100.00
59043;BME280;44826;51.596;5.624;2024-01-25T06:08:52;102834.34;;;4.25;100.00
59043;BME280;44826;51.596;5.624;2024-01-25T06:11:20;102824.00;;;4.24;100.00
59043;BME280;44826;51.596;5.624;2024-01-25T06:13:48;102828.25;;;4.23;100.00
59043;BME280;44826;51.596;5.624;2024-01-25T06:16:19;102828.22;;;4.22;100.00
59043;BME280;44826;51.596;5.624;2024-01-25T06:18:52;102832.44;;;4.20;100.00
59043;BME280;44826;51.596;5.624;2024-01-25T06:21:28;102846.97;;;4.18;100.00
59043;BME280;44826;51.596;5.624;2024-01-25T06:24:01;102838.25;;;4.14;100.00
59043;BME280;44826;51.596;5.624;2024-01-25T06:26:27;102845.06;;;4.12;100.00
59043;BME280;44826;51.596;5.624;2024-01-25T06:29:11;102844.94;;;4.09;100.00
59043;BME280;44826;51.596;5.624;2024-01-25T06:31:50;102840.59;;;4.06;100.00
59043;BME280;44826;51.596;5.624;2024-01-25T06:34:25;102850.81;;;4.05;100.00
59043;BME280;44826;51.596;5.624;2024-01-25T06:36:52;102835.25;;;4.02;100.00
59043;BME280;44826;51.596;5.624;2024-01-25T09:06:27;102913.09;;;4.45;100.00
59043;BME280;44826;51.596;5.624;2024-01-25T09:08:52;102919.19;;;4.47;100.00
59043;BME280;44826;51.596;5.624;2024-01-25T09:52:16;102890.34;;;5.13;100.00
59043;BME280;44826;51.596;5.624;2024-01-25T09:54:42;102885.41;;;5.21;100.00
59043;BME280;44826;51.596;5.624;2024-01-25T10:41:42;102847.75;;;5.90;100.00
59043;BME280;44826;51.596;5.624;2024-01-25T10:44:36;102846.91;;;5.91;100.00
59043;BME280;44826;51.596;5.624;2024-01-25T10:47:01;102847.91;;;5.97;100.00
59043;BME280;44826;51.596;5.624;2024-01-25T10:49:57;102836.78;;;5.99;100.00
59043;BME280;44826;51.596;5.624;2024-01-25T11:46:05;102768.75;;;6.75;100.00
59043;BME280;44826;51.596;5.624;2024-01-25T13:46:00;102634.59;;;6.94;100.00
59043;BME280;44826;51.596;5.624;2024-01-25T14:29:25;102609.44;;;6.85;100.00
59043;BME280;44826;51.596;5.624;2024-01-25T14:36:26;102602.56;;;6.87;100.00
59043;BME280;44826;51.596;5.624;2024-01-25T14:38:56;102591.34;;;6.87;100.00
59043;BME280;44826;51.596;5.624;2024-01-25T14:41:26;102585.31;;;6.88;100.00
59043;BME280;44826;51.596;5.624;2024-01-25T14:44:05;102581.88;;;6.89;100.00
59043;BME280;44826;51.596;5.624;2024-01-25T14:52:43;102572.31;;;6.84;100.00
59043;BME280;44826;51.596;5.624;2024-01-25T15:03:32;102567.00;;;6.75;100.00
59043;BME280;44826;51.596;5.624;2024-01-25T15:09:09;102561.75;;;6.72;100.00
59043;BME280;44826;51.596;5.624;2024-01-25T15:31:53;102523.72;;;6.65;100.00
59043;BME280;44826;51.596;5.624;2024-01-25T15:34:18;102526.31;;;6.66;100.00
59043;BME280;44826;51.596;5.624;2024-01-25T15:36:51;102511.66;;;6.67;100.00
59043;BME280;44826;51.596;5.624;2024-01-25T15:39:16;102503.06;;;6.68;100.00
59043;BME280;44826;51.596;5.624;2024-01-25T15:41:43;102509.97;;;6.69;100.00
59043;BME280;44826;51.596;5.624;2024-01-25T15:44:09;102502.19;;;6.66;100.00
59043;BME280;44826;51.596;5.624;2024-01-25T15:46:36;102495.28;;;6.65;100.00
59043;BME280;44826;51.596;5.624;2024-01-25T15:49:05;102502.19;;;6.67;100.00
59043;BME280;44826;51.596;5.624;2024-01-25T15:51:33;102503.91;;;6.67;100.00
59043;BME280;44826;51.596;5.624;2024-01-25T15:53:58;102491.84;;;6.67;100.00
59043;BME280;44826;51.596;5.624;2024-01-25T15:56:34;102491.00;;;6.68;100.00
59043;BME280;44826;51.596;5.624;2024-01-25T15:58:59;102485.78;;;6.67;100.00
59043;BME280;44826;51.596;5.624;2024-01-25T16:01:30;102491.84;;;6.67;100.00
59043;BME280;44826;51.596;5.624;2024-01-25T16:04:01;102485.78;;;6.67;100.00
59043;BME280;44826;51.596;5.624;2024-01-25T16:06:51;102492.72;;;6.68;100.00
59043;BME280;44826;51.596;5.624;2024-01-25T16:09:29;102497.09;;;6.71;100.00
59043;BME280;44826;51.596;5.624;2024-01-25T16:12:07;102497.94;;;6.71;100.00
59043;BME280;44826;51.596;5.624;2024-01-25T16:14:36;102496.19;;;6.70;100.00
59043;BME280;44826;51.596;5.624;2024-01-25T16:17:11;102499.69;;;6.71;100.00
59043;BME280;44826;51.596;5.624;2024-01-25T16:19:42;102498.84;;;6.72;100.00
59043;BME280;44826;51.596;5.624;2024-01-25T16:22:10;102505.75;;;6.74;100.00
59043;BME280;44826;51.596;5.624;2024-01-25T16:24:35;102495.44;;;6.76;100.00
59043;BME280;44826;51.596;5.624;2024-01-25T16:27:03;102493.72;;;6.76;100.00
59043;BME280;44826;51.596;5.624;2024-01-25T16:29:33;102490.31;;;6.77;100.00
59043;BME280;44826;51.596;5.624;2024-01-25T16:32:11;102494.66;;;6.80;100.00
59043;BME280;44826;51.596;5.624;2024-01-25T16:34:39;102481.69;;;6.78;100.00
59043;BME280;44826;51.596;5.624;2024-01-25T16:37:23;102480.84;;;6.79;100.00
59043;BME280;44826;51.596;5.624;2024-01-25T16:39:51;102481.72;;;6.80;100.00
59043;BME280;44826;51.596;5.624;2024-01-25T16:42:26;102481.72;;;6.80;100.00
59043;BME280;44826;51.596;5.624;2024-01-25T16:44:54;102485.13;;;6.79;100.00
59043;BME280;44826;51.596;5.624;2024-01-25T16:47:27;102486.94;;;6.83;100.00
59043;BME280;44826;51.596;5.624;2024-01-25T16:50:00;102480.91;;;6.82;100.00
59043;BME280;44826;51.596;5.624;2024-01-25T16:52:25;102482.63;;;6.83;100.00
59043;BME280;44826;51.596;5.624;2024-01-25T17:13:38;102469.00;;;6.94;100.00
59043;BME280;44826;51.596;5.624;2024-01-25T17:16:11;102467.31;;;6.96;100.00
59043;BME280;44826;51.596;5.624;2024-01-25T17:21:46;102462.19;;;6.99;100.00
59043;BME280;44826;51.596;5.624;2024-01-25T17:24:17;102462.19;;;6.99;100.00
59043;BME280;44826;51.596;5.624;2024-01-25T17:26:43;102474.31;;;7.03;100.00
59043;BME280;44826;51.596;5.624;2024-01-25T17:29:11;102474.31;;;7.03;100.00
59043;BME280;44826;51.596;5.624;2024-01-25T17:31:39;102474.34;;;7.06;100.00
59043;BME280;44826;51.596;5.624;2024-01-25T17:34:05;102474.34;;;7.06;100.00
59043;BME280;44826;51.596;5.624;2024-01-25T17:44:07;102464.13;;;7.12;100.00
59043;BME280;44826;51.596;5.624;2024-01-25T17:57:22;102449.50;;;7.18;100.00
59043;BME280;44826;51.596;5.624;2024-01-25T18:00:16;102459.00;;;7.19;100.00
59043;BME280;44826;51.596;5.624;2024-01-25T18:03:21;102459.06;;;7.22;100.00
59043;BME280;44826;51.596;5.624;2024-01-25T18:05:55;102463.44;;;7.24;100.00
59043;BME280;44826;51.596;5.624;2024-01-25T18:08:23;102459.09;;;7.25;100.00
59043;BME280;44826;51.596;5.624;2024-01-25T18:11:02;102450.50;;;7.26;100.00
59043;BME280;44826;51.596;5.624;2024-01-25T18:13:38;102451.34;;;7.26;100.00
59043;BME280;44826;51.596;5.624;2024-01-25T18:16:06;102448.81;;;7.28;100.00
59043;BME280;44826;51.596;5.624;2024-01-25T18:18:38;102454.03;;;7.31;100.00
59043;BME280;44826;51.596;5.624;2024-01-25T18:21:03;102445.41;;;7.32;100.00
59043;BME280;44826;51.596;5.624;2024-01-25T18:23:34;102443.72;;;7.34;100.00
59043;BME280;44826;51.596;5.624;2024-01-25T18:26:21;102441.09;;;7.33;100.00
59043;BME280;44826;51.596;5.624;2024-01-25T18:29:16;102441.16;;;7.37;100.00
59043;BME280;44826;51.596;5.624;2024-01-25T18:32:12;102442.03;;;7.39;100.00
59043;BME280;44826;51.596;5.624;2024-01-25T18:35:00;102435.16;;;7.41;100.00
59043;BME280;44826;51.596;5.624;2024-01-25T18:37:41;102438.66;;;7.43;100.00
59043;BME280;44826;51.596;5.624;2024-01-25T18:40:56;102427.41;;;7.41;100.00
59043;BME280;44826;51.596;5.624;2024-01-25T18:43:36;102424.00;;;7.46;100.00
59043;BME280;44826;51.596;5.624;2024-01-25T18:46:01;102427.50;;;7.48;100.00
59043;BME280;44826;51.596;5.624;2024-01-25T18:48:31;102424.91;;;7.48;100.00
59043;BME280;44826;51.596;5.624;2024-01-25T18:50:59;102416.28;;;7.49;100.00
59043;BME280;44826;51.596;5.624;2024-01-25T18:53:28;102425.78;;;7.50;100.00
59043;BME280;44826;51.596;5.624;2024-01-25T18:55:54;102416.28;;;7.52;100.00
59043;BME280;44826;51.596;5.624;2024-01-25T19:00:55;102417.22;;;7.55;100.00
59043;BME280;44826;51.596;5.624;2024-01-25T19:03:32;102407.72;;;7.56;100.00
59043;BME280;44826;51.596;5.624;2024-01-25T19:05:58;102406.03;;;7.58;100.00
59043;BME280;44826;51.596;5.624;2024-01-25T19:08:27;102405.16;;;7.59;100.00
59043;BME280;44826;51.596;5.624;2024-01-25T19:10:52;102411.25;;;7.59;100.00
59043;BME280;44826;51.596;5.624;2024-01-25T19:20:15;102399.19;;;7.63;100.00
59043;BME280;44826;51.596;5.624;2024-01-25T19:23:03;102397.47;;;7.65;100.00
59043;BME280;44826;51.596;5.624;2024-01-25T19:26:08;102385.38;;;7.66;100.00
59043;BME280;44826;51.596;5.624;2024-01-25T19:28:35;102376.81;;;7.68;100.00
59043;BME280;44826;51.596;5.624;2024-01-25T19:31:06;102375.91;;;7.68;100.00
59043;BME280;44826;51.596;5.624;2024-01-25T19:42:15;102373.38;;;7.72;100.00
59043;BME280;44826;51.596;5.624;2024-01-25T19:44:40;102371.66;;;7.74;100.00
59043;BME280;44826;51.596;5.624;2024-01-25T19:47:05;102367.34;;;7.73;100.00
59043;BME280;44826;51.596;5.624;2024-01-25T19:49:41;102363.91;;;7.74;100.00
59043;BME280;44826;51.596;5.624;2024-01-25T19:52:17;102361.34;;;7.76;100.00
59043;BME280;44826;51.596;5.624;2024-01-25T19:54:42;102353.56;;;7.76;100.00
59043;BME280;44826;51.596;5.624;2024-01-25T20:00:58;102360.53;;;7.82;100.00
59043;BME280;44826;51.596;5.624;2024-01-25T20:03:24;102361.38;;;7.81;100.00
59043;BME280;44826;51.596;5.624;2024-01-25T20:05:50;102348.44;;;7.82;100.00
59043;BME280;44826;51.596;5.624;2024-01-25T20:08:26;102345.88;;;7.84;100.00
59043;BME280;44826;51.596;5.624;2024-01-25T20:10:52;102345.88;;;7.84;100.00
59043;BME280;44826;51.596;5.624;2024-01-25T20:13:17;102341.53;;;7.86;100.00
59043;BME280;44826;51.596;5.624;2024-01-25T20:15:43;102343.28;;;7.87;100.00
59043;BME280;44826;51.596;5.624;2024-01-25T20:18:08;102343.31;;;7.88;100.00
59043;BME280;44826;51.596;5.624;2024-01-25T20:20:38;102336.41;;;7.87;100.00
59043;BME280;44826;51.596;5.624;2024-01-25T20:23:06;102351.97;;;7.90;100.00
59043;BME280;44826;51.596;5.624;2024-01-25T20:25:34;102344.22;;;7.90;100.00
59043;BME280;44826;51.596;5.624;2024-01-25T20:31:15;102351.16;;;7.96;100.00
59043;BME280;44826;51.596;5.624;2024-01-25T20:34:17;102336.47;;;7.94;100.00
59043;BME280;44826;51.596;5.624;2024-01-25T20:36:44;102338.22;;;7.98;100.00
59043;BME280;44826;51.596;5.624;2024-01-25T20:39:12;102335.66;;;7.99;100.00
59043;BME280;44826;51.596;5.624;2024-01-25T20:41:45;102331.31;;;8.00;100.00
59043;BME280;44826;51.596;5.624;2024-01-25T20:44:11;102340.88;;;8.04;100.00
59043;BME280;44826;51.596;5.624;2024-01-25T20:46:36;102329.66;;;8.05;100.00
59043;BME280;44826;51.596;5.624;2024-01-25T20:49:04;102325.31;;;8.05;100.00
59043;BME280;44826;51.596;5.624;2024-01-25T20:51:35;102329.69;;;8.08;100.00
59043;BME280;44826;51.596;5.624;2024-01-25T20:54:11;102328.81;;;8.09;100.00
59043;BME280;44826;51.596;5.624;2024-01-25T20:56:36;102321.06;;;8.11;100.00
59043;BME280;44826;51.596;5.624;2024-01-25T20:59:09;102315.88;;;8.12;100.00
59043;BME280;44826;51.596;5.624;2024-01-25T21:01:37;102327.13;;;8.14;100.00
59043;BME280;44826;51.596;5.624;2024-01-25T21:04:12;102319.38;;;8.17;100.00
59043;BME280;44826;51.596;5.624;2024-01-25T21:06:41;102314.22;;;8.19;100.00
59043;BME280;44826;51.596;5.624;2024-01-25T21:18:23;102301.25;;;8.22;100.00
59043;BME280;44826;51.596;5.624;2024-01-25T21:21:02;102302.16;;;8.26;100.00
59043;BME280;44826;51.596;5.624;2024-01-25T21:23:43;102300.44;;;8.26;100.00
59043;BME280;44826;51.596;5.624;2024-01-25T21:29:55;102294.38;;;8.27;100.00
59043;BME280;44826;51.596;5.624;2024-01-25T21:39:30;102290.09;;;8.31;100.00
59043;BME280;44826;51.596;5.624;2024-01-25T21:53:20;102291.88;;;8.38;100.00
59043;BME280;44826;51.596;5.624;2024-01-25T21:55:48;102284.97;;;8.40;100.00
59043;BME280;44826;51.596;5.624;2024-01-25T21:58:41;102279.78;;;8.42;100.00
59043;BME280;44826;51.596;5.624;2024-01-25T22:01:45;102280.66;;;8.44;100.00
59043;BME280;44826;51.596;5.624;2024-01-25T22:11:02;102277.22;;;8.45;100.00
59043;BME280;44826;51.596;5.624;2024-01-25T22:13:47;102273.78;;;8.46;100.00
59043;BME280;44826;51.596;5.624;2024-01-25T22:16:18;102277.22;;;8.46;100.00
59043;BME280;44826;51.596;5.624;2024-01-25T22:18:44;102268.59;;;8.46;100.00
59043;BME280;44826;51.596;5.624;2024-01-25T22:21:10;102275.50;;;8.47;100.00
59043;BME280;44826;51.596;5.624;2024-01-25T22:23:36;102278.13;;;8.48;100.00
59043;BME280;44826;51.596;5.624;2024-01-25T22:26:02;102287.66;;;8.48;100.00
59043;BME280;44826;51.596;5.624;2024-01-25T22:28:38;102292.84;;;8.48;100.00
59043;BME280;44826;51.596;5.624;2024-01-25T22:31:21;102288.50;;;8.48;100.00
59043;BME280;44826;51.596;5.624;2024-01-25T22:33:47;102289.41;;;8.49;100.00
59043;BME280;44826;51.596;5.624;2024-01-25T22:36:13;102292.88;;;8.51;100.00
59043;BME280;44826;51.596;5.624;2024-01-25T22:45:06;102286.81;;;8.54;100.00
59043;BME280;44826;51.596;5.624;2024-01-25T22:51:38;102267.81;;;8.55;100.00
59043;BME280;44826;51.596;5.624;2024-01-25T22:54:14;102272.09;;;8.54;100.00
59043;BME280;44826;51.596;5.624;2024-01-25T22:57:20;102265.22;;;8.53;100.00
59043;BME280;44826;51.596;5.624;2024-01-25T22:59:45;102263.47;;;8.55;100.00
59043;BME280;44826;51.596;5.624;2024-01-25T23:02:52;102260.88;;;8.54;100.00
59043;BME280;44826;51.596;5.624;2024-01-25T23:05:58;102254.84;;;8.53;100.00
59043;BME280;44826;51.596;5.624;2024-01-25T23:08:46;102255.69;;;8.52;100.00
59043;BME280;44826;51.596;5.624;2024-01-25T23:11:41;102252.22;;;8.52;100.00